KABQ/ABQ METAR and TAF weather

Enter ICAO airport designator
Station Type Date Time Source
KABQ METAR 2020/07/05 02:52 UTC NOAA

KABQ 050252Z 01012G20KT 10SM FEW090 SCT170 29/07 A3010 RMK AO2 SLP097 T02940072 53010


Station Type Date Time Source
KABQ Decoded METAR 2020/07/05 02:52 UTC NOAA

ALBUQUERQUE INTERNATIONAL AIRPORT, NM, United States (KABQ) 35-02N 106-36W 1618M
Jul 04, 2020 - 10:52 PM EDT / 2020.07.05 0252 UTC
Wind: from the N (010 degrees) at 14 MPH (12 KT) gusting to 23 MPH (20 KT):0
Visibility: 10 mile(s):0
Sky conditions: partly cloudy
Temperature: 84.9 F (29.4 C)
Dew Point: 45.0 F (7.2 C)
Relative Humidity: 24%
Pressure (altimeter): 30.1 in. Hg (1019 hPa)
Pressure tendency: 0.03 inches (1.0 hPa) higher than three hours ago
ob: KABQ 050252Z 01012G20KT 10SM FEW090 SCT170 29/07 A3010 RMK AO2 SLP097 T02940072 53010
cycle: 3

Station Type Date Time Source
KABQ TAF 2020/07/05 00:28 UTC NOAA

TAF
AMD KABQ 050025Z 0500/0524 29012G18KT P6SM SCT100
FM050200 02012KT P6SM SCT100
FM050300 08015G25KT P6SM SCT120
FM050800 08012KT P6SM SCT150
FM051300 01007KT P6SM FEW150
FM051900 31010KT P6SM SCT100
FM052300 04012KT P6SM VCSH BKN100

Example: see airport list